Wetterdaten: Woche 20.07.09 - 26.07.09 (KW30)
Datum Zeit Temp. Innen Temp. Aussen UV X Diff Temp. Feuchte Inne Feuchte Auss Sonnenschein Luftdruck Regen ab 0,1 Wind Sonnenschein Windben
20.07.2009 00:00 21,7 C 16,2 C 0,0 UV-I 0,0 C 56 % 76 % 0 % 1015,0 hPa 0,0 l/m 1,5 km/h (1 Bft) 0,00 h 3,2 km/h (1 Bft)
20.07.2009 01:00 21,5 C 15,7 C 0,0 UV-I 0,0 C 57 % 78 % 0 % 1014,7 hPa 0,0 l/m 1,8 km/h (1 Bft) 0,00 h 4,5 km/h (1 Bft)
20.07.2009 02:00 21,2 C 16,1 C 0,0 UV-I 0,0 C 56 % 76 % 0 % 1014,7 hPa 0,0 l/m 5,4 km/h (1 Bft) 0,00 h 10,7 km/h (2 Bft)
20.07.2009 03:00 21,1 C 15,6 C 0,0 UV-I 0,0 C 57 % 78 % 0 % 1014,9 hPa 0,0 l/m 2,4 km/h (1 Bft) 0,00 h 2,6 km/h (1 Bft)
20.07.2009 04:00 20,9 C 15,3 C 0,0 UV-I 0,0 C 57 % 80 % 0 % 1014,4 hPa 0,0 l/m 2,7 km/h (1 Bft) 0,00 h 4,9 km/h (1 Bft)
20.07.2009 05:00 20,6 C 15,2 C 0,0 UV-I 0,0 C 58 % 80 % 0 % 1014,4 hPa 0,0 l/m 3,2 km/h (1 Bft) 0,00 h 4,3 km/h (1 Bft)
20.07.2009 06:00 20,5 C 15,4 C 0,1 UV-I 0,0 C 58 % 80 % 0 % 1014,3 hPa 0,0 l/m 3,0 km/h (1 Bft) 0,00 h 4,4 km/h (1 Bft)
20.07.2009 07:00 20,5 C 15,8 C 0,7 UV-I 0,0 C 59 % 80 % 1 % 1014,6 hPa 0,0 l/m 4,0 km/h (1 Bft) 0,00 h 7,2 km/h (2 Bft)
20.07.2009 08:00 20,5 C 16,2 C 0,6 UV-I 0,2 C 59 % 78 % 5 % 1015,1 hPa 0,0 l/m 5,8 km/h (1 Bft) 0,00 h 8,4 km/h (2 Bft)
20.07.2009 09:00 20,7 C 16,9 C 1,9 UV-I 0,6 C 58 % 76 % 19 % 1015,5 hPa 0,0 l/m 5,9 km/h (2 Bft) 0,00 h 6,3 km/h (2 Bft)
20.07.2009 10:00 21,0 C 17,7 C 3,0 UV-I 1,4 C 58 % 73 % 39 % 1015,7 hPa 0,0 l/m 5,5 km/h (1 Bft) 0,00 h 7,1 km/h (2 Bft)
20.07.2009 11:00 21,2 C 18,7 C 4,0 UV-I 1,8 C 57 % 67 % 52 % 1016,0 hPa 0,0 l/m 6,1 km/h (2 Bft) 0,03 h 7,2 km/h (2 Bft)
20.07.2009 12:00 21,5 C 19,8 C 4,3 UV-I 2,0 C 56 % 63 % 57 % 1016,4 hPa 0,0 l/m 6,9 km/h (2 Bft) 0,03 h 10,6 km/h (2 Bft)
20.07.2009 13:00 21,8 C 21,2 C 5,6 UV-I 2,8 C 54 % 57 % 71 % 1016,7 hPa 0,0 l/m 7,5 km/h (2 Bft) 0,20 h 9,8 km/h (2 Bft)
20.07.2009 14:00 22,5 C 22,5 C 6,6 UV-I 3,3 C 52 % 52 % 90 % 1017,1 hPa 0,0 l/m 6,8 km/h (2 Bft) 0,30 h 9,4 km/h (2 Bft)
20.07.2009 15:00 23,4 C 23,3 C 5,5 UV-I 2,6 C 50 % 49 % 70 % 1017,4 hPa 0,0 l/m 6,9 km/h (2 Bft) 0,13 h 9,6 km/h (2 Bft)
20.07.2009 16:00 24,2 C 23,4 C 6,5 UV-I 2,6 C 48 % 49 % 74 % 1017,5 hPa 0,0 l/m 6,8 km/h (2 Bft) 0,20 h 10,0 km/h (2 Bft)
20.07.2009 17:00 24,7 C 23,4 C 3,0 UV-I 1,0 C 46 % 47 % 29 % 1017,3 hPa 0,0 l/m 5,0 km/h (1 Bft) 0,00 h 5,6 km/h (1 Bft)
20.07.2009 18:00 24,5 C 22,5 C 1,8 UV-I 0,2 C 46 % 49 % 5 % 1017,3 hPa 0,0 l/m 3,1 km/h (1 Bft) 0,00 h 4,5 km/h (1 Bft)
20.07.2009 19:00 24,1 C 21,8 C 1,2 UV-I 0,1 C 47 % 54 % 1 % 1017,1 hPa 0,0 l/m 2,6 km/h (1 Bft) 0,00 h 3,0 km/h (1 Bft)
20.07.2009 20:00 23,8 C 20,8 C 0,3 UV-I 0,0 C 48 % 58 % 0 % 1017,0 hPa 0,0 l/m 0,3 km/h (0 Bft) 0,00 h 0,2 km/h (0 Bft)
20.07.2009 21:00 23,4 C 19,5 C 0,0 UV-I 0,0 C 50 % 65 % 0 % 1017,0 hPa 0,0 l/m 0,0 km/h (0 Bft) 0,00 h 0,0 km/h (0 Bft)
20.07.2009 22:00 23,0 C 18,5 C 0,0 UV-I 0,0 C 52 % 70 % 0 % 1016,9 hPa 0,0 l/m 0,0 km/h (0 Bft) 0,00 h 0,0 km/h (0 Bft)
20.07.2009 23:00 22,7 C 17,5 C 0,0 UV-I 0,0 C 54 % 73 % 0 % 1016,8 hPa 0,0 l/m 0,0 km/h (0 Bft) 0,00 h 0,0 km/h (0 Bft)
21.07.2009 00:00 22,5 C 17,1 C 0,0 UV-I 0,0 C 55 % 75 % 0 % 1016,8 hPa 0,0 l/m 0,0 km/h (0 Bft) 0,00 h 0,3 km/h (0 Bft)
21.07.2009 01:00 22,3 C 16,8 C 0,0 UV-I 0,0 C 56 % 78 % 0 % 1016,6 hPa 0,0 l/m 0,0 km/h (0 Bft) 0,00 h 0,0 km/h (0 Bft)
21.07.2009 02:00 22,2 C 17,0 C 0,0 UV-I 0,0 C 56 % 76 % 0 % 1016,4 hPa 0,0 l/m 0,0 km/h (0 Bft) 0,00 h 0,0 km/h (0 Bft)
21.07.2009 03:00 22,1 C 16,9 C 0,0 UV-I 0,0 C 56 % 76 % 0 % 1015,8 hPa 0,0 l/m 0,0 km/h (0 Bft) 0,00 h 0,0 km/h (0 Bft)
21.07.2009 04:00 22,1 C 16,7 C 0,0 UV-I 0,0 C 57 % 78 % 0 % 1015,5 hPa 0,0 l/m 0,0 km/h (0 Bft) 0,00 h 0,0 km/h (0 Bft)
21.07.2009 05:00 22,0 C 16,8 C 0,0 UV-I 0,0 C 57 % 77 % 0 % 1015,4 hPa 0,0 l/m 0,0 km/h (0 Bft) 0,00 h 0,0 km/h (0 Bft)
21.07.2009 06:00 21,9 C 16,8 C 0,0 UV-I 0,0 C 57 % 77 % 0 % 1014,9 hPa 0,0 l/m 0,0 km/h (0 Bft) 0,00 h 0,0 km/h (0 Bft)
21.07.2009 07:00 21,9 C 17,0 C 0,1 UV-I 0,0 C 58 % 78 % 0 % 1015,0 hPa 0,0 l/m 2,3 km/h (1 Bft) 0,00 h 4,7 km/h (1 Bft)
21.07.2009 08:00 21,9 C 17,4 C 1,1 UV-I 0,6 C 58 % 78 % 18 % 1014,8 hPa 0,0 l/m 1,2 km/h (1 Bft) 0,00 h 2,3 km/h (1 Bft)
21.07.2009 09:00 22,2 C 18,9 C 2,3 UV-I 1,8 C 58 % 75 % 51 % 1014,5 hPa 0,0 l/m 3,1 km/h (1 Bft) 0,00 h 5,8 km/h (2 Bft)
21.07.2009 10:00 22,6 C 20,9 C 4,7 UV-I 2,6 C 57 % 67 % 74 % 1014,1 hPa 0,0 l/m 4,7 km/h (1 Bft) 0,27 h 8,7 km/h (2 Bft)
21.07.2009 11:00 22,8 C 23,1 C 10,0 UV-I 3,7 C 56 % 60 % 95 % 1013,7 hPa 0,0 l/m 5,3 km/h (1 Bft) 0,70 h 10,4 km/h (2 Bft)
21.07.2009 12:00 23,1 C 26,2 C 7,6 UV-I 3,9 C 56 % 52 % 98 % 1013,0 hPa 0,0 l/m 4,1 km/h (1 Bft) 0,87 h 8,4 km/h (2 Bft)
21.07.2009 13:00 23,6 C 28,2 C 6,9 UV-I 2,9 C 56 % 48 % 80 % 1012,4 hPa 0,0 l/m 4,3 km/h (1 Bft) 0,60 h 8,6 km/h (2 Bft)
21.07.2009 14:00 24,3 C 29,9 C 6,5 UV-I 2,8 C 56 % 46 % 81 % 1011,9 hPa 0,0 l/m 3,5 km/h (1 Bft) 0,57 h 8,3 km/h (2 Bft)
21.07.2009 15:00 25,3 C 31,4 C 6,3 UV-I 2,6 C 53 % 40 % 75 % 1011,6 hPa 0,0 l/m 5,7 km/h (1 Bft) 0,40 h 11,4 km/h (2 Bft)
21.07.2009 16:00 26,1 C 31,1 C 3,7 UV-I 0,3 C 51 % 40 % 9 % 1010,7 hPa 0,0 l/m 6,5 km/h (2 Bft) 0,00 h 14,5 km/h (3 Bft)
21.07.2009 17:00 26,2 C 30,3 C 3,0 UV-I 0,5 C 52 % 45 % 13 % 1009,7 hPa 0,0 l/m 6,6 km/h (2 Bft) 0,00 h 10,0 km/h (2 Bft)
21.07.2009 18:00 26,1 C 29,2 C 1,3 UV-I 0,0 C 52 % 46 % 0 % 1009,1 hPa 0,0 l/m 4,2 km/h (1 Bft) 0,00 h 7,8 km/h (2 Bft)
21.07.2009 19:00 25,8 C 27,8 C 0,1 UV-I 0,0 C 53 % 54 % 0 % 1008,4 hPa 1,2 l/m 0,8 km/h (0 Bft) 0,00 h 1,3 km/h (1 Bft)
21.07.2009 20:00 25,4 C 24,1 C 0,0 UV-I 0,0 C 60 % 73 % 0 % 1008,9 hPa 8,0 l/m 4,5 km/h (1 Bft) 0,00 h 10,4 km/h (2 Bft)
21.07.2009 21:00 24,6 C 20,6 C 0,0 UV-I 0,0 C 63 % 82 % 0 % 1007,2 hPa 0,1 l/m 0,9 km/h (0 Bft) 0,00 h 3,5 km/h (1 Bft)
21.07.2009 22:00 24,0 C 20,1 C 0,0 UV-I 0,0 C 65 % 84 % 0 % 1008,5 hPa 0,0 l/m 2,0 km/h (1 Bft) 0,00 h 3,4 km/h (1 Bft)
21.07.2009 23:00 23,7 C 19,3 C 0,0 UV-I 0,0 C 66 % 86 % 0 % 1007,5 hPa 0,0 l/m 0,2 km/h (0 Bft) 0,00 h 0,5 km/h (0 Bft)
22.07.2009 00:00 23,4 C 18,6 C 0,0 UV-I 0,0 C 66 % 89 % 0 % 1007,8 hPa 0,0 l/m 0,1 km/h (0 Bft) 0,00 h 0,3 km/h (0 Bft)
22.07.2009 01:00 23,2 C 18,1 C 0,0 UV-I 0,0 C 66 % 90 % 0 % 1007,1 hPa 0,0 l/m 0,0 km/h (0 Bft) 0,00 h 0,0 km/h (0 Bft)
22.07.2009 02:00 23,0 C 17,9 C 0,0 UV-I 0,0 C 67 % 91 % 0 % 1006,3 hPa 0,0 l/m 1,1 km/h (0 Bft) 0,00 h 2,1 km/h (1 Bft)
22.07.2009 03:00 22,9 C 17,9 C 0,0 UV-I 0,0 C 67 % 92 % 0 % 1005,4 hPa 0,0 l/m 0,0 km/h (0 Bft) 0,00 h 0,1 km/h (0 Bft)
22.07.2009 04:00 22,8 C 18,0 C 0,0 UV-I 0,0 C 68 % 92 % 0 % 1004,8 hPa 0,0 l/m 0,2 km/h (0 Bft) 0,00 h 1,3 km/h (1 Bft)
22.07.2009 05:00 22,8 C 18,5 C 0,0 UV-I 0,0 C 69 % 93 % 0 % 1004,9 hPa 0,0 l/m 3,0 km/h (1 Bft) 0,03 h 5,8 km/h (1 Bft)
22.07.2009 06:00 22,8 C 19,9 C 0,0 UV-I 0,4 C 70 % 88 % 11 % 1004,7 hPa 0,1 l/m 6,8 km/h (2 Bft) 0,03 h 16,4 km/h (3 Bft)
22.07.2009 07:00 22,8 C 20,5 C 0,1 UV-I 0,0 C 70 % 86 % 0 % 1004,8 hPa 0,9 l/m 6,4 km/h (2 Bft) 0,00 h 10,0 km/h (2 Bft)
22.07.2009 08:00 22,8 C 20,6 C 0,2 UV-I 0,0 C 70 % 83 % 0 % 1005,0 hPa 0,0 l/m 4,7 km/h (1 Bft) 0,00 h 8,6 km/h (2 Bft)
22.07.2009 09:00 22,8 C 20,9 C 0,7 UV-I 0,1 C 68 % 79 % 3 % 1006,0 hPa 0,0 l/m 4,1 km/h (1 Bft) 0,00 h 7,9 km/h (2 Bft)
22.07.2009 10:00 23,0 C 21,5 C 1,3 UV-I 0,3 C 67 % 77 % 9 % 1007,1 hPa 0,0 l/m 4,0 km/h (1 Bft) 0,00 h 7,9 km/h (2 Bft)
22.07.2009 11:00 23,3 C 23,2 C 7,3 UV-I 3,0 C 66 % 70 % 81 % 1007,9 hPa 0,0 l/m 5,8 km/h (2 Bft) 0,67 h 11,7 km/h (2 Bft)
22.07.2009 12:00 23,7 C 25,6 C 7,0 UV-I 3,1 C 64 % 60 % 88 % 1007,7 hPa 0,0 l/m 7,8 km/h (2 Bft) 0,53 h 13,2 km/h (3 Bft)
22.07.2009 13:00 24,2 C 27,0 C 6,5 UV-I 2,7 C 62 % 55 % 78 % 1008,0 hPa 0,0 l/m 7,1 km/h (2 Bft) 0,37 h 10,9 km/h (2 Bft)
22.07.2009 14:00 25,0 C 27,8 C 6,1 UV-I 2,4 C 61 % 52 % 69 % 1007,7 hPa 0,1 l/m 8,4 km/h (2 Bft) 0,40 h 14,8 km/h (3 Bft)
22.07.2009 15:00 26,1 C 28,8 C 6,2 UV-I 2,6 C 58 % 51 % 73 % 1007,6 hPa 0,0 l/m 8,3 km/h (2 Bft) 0,30 h 13,3 km/h (3 Bft)
22.07.2009 16:00 27,2 C 29,5 C 7,4 UV-I 2,6 C 55 % 49 % 74 % 1007,4 hPa 0,0 l/m 8,2 km/h (2 Bft) 0,40 h 15,9 km/h (3 Bft)
22.07.2009 17:00 27,8 C 29,3 C 3,6 UV-I 2,3 C 53 % 47 % 66 % 1006,9 hPa 0,0 l/m 8,4 km/h (2 Bft) 0,23 h 13,4 km/h (3 Bft)
22.07.2009 18:00 28,1 C 28,7 C 2,4 UV-I 1,8 C 51 % 47 % 50 % 1006,7 hPa 0,0 l/m 6,5 km/h (2 Bft) 0,00 h 10,5 km/h (2 Bft)
22.07.2009 19:00 27,2 C 27,9 C 1,4 UV-I 0,1 C 52 % 50 % 3 % 1006,3 hPa 0,0 l/m 4,3 km/h (1 Bft) 0,00 h 7,3 km/h (2 Bft)
22.07.2009 20:00 26,5 C 26,8 C 0,2 UV-I 0,0 C 54 % 54 % 0 % 1005,5 hPa 0,0 l/m 1,2 km/h (1 Bft) 0,00 h 2,2 km/h (1 Bft)
22.07.2009 21:00 26,1 C 25,2 C 0,0 UV-I 0,0 C 56 % 62 % 0 % 1004,6 hPa 0,0 l/m 0,3 km/h (0 Bft) 0,00 h 0,8 km/h (0 Bft)
22.07.2009 22:00 25,7 C 23,6 C 0,0 UV-I 0,0 C 58 % 73 % 0 % 1004,5 hPa 1,1 l/m 0,2 km/h (0 Bft) 0,00 h 1,4 km/h (1 Bft)
22.07.2009 23:00 25,4 C 21,3 C 0,0 UV-I 0,0 C 61 % 83 % 0 % 1004,1 hPa 3,2 l/m 1,1 km/h (1 Bft) 0,00 h 1,9 km/h (1 Bft)
23.07.2009 00:00 25,0 C 20,2 C 0,0 UV-I 0,0 C 62 % 88 % 0 % 1003,9 hPa 2,4 l/m 0,4 km/h (0 Bft) 0,00 h 1,0 km/h (0 Bft)
23.07.2009 01:00 24,8 C 19,8 C 0,0 UV-I 0,0 C 64 % 90 % 0 % 1003,1 hPa 0,0 l/m 0,3 km/h (0 Bft) 0,00 h 1,6 km/h (1 Bft)
23.07.2009 02:00 24,4 C 19,0 C 0,0 UV-I 0,0 C 65 % 89 % 0 % 1003,7 hPa 0,0 l/m 2,7 km/h (1 Bft) 0,00 h 5,4 km/h (1 Bft)
23.07.2009 03:00 24,1 C 18,1 C 0,0 UV-I 0,0 C 65 % 89 % 0 % 1003,5 hPa 0,0 l/m 0,2 km/h (0 Bft) 0,00 h 0,2 km/h (0 Bft)
23.07.2009 04:00 23,8 C 17,7 C 0,0 UV-I 0,0 C 65 % 91 % 0 % 1003,6 hPa 0,0 l/m 1,3 km/h (1 Bft) 0,00 h 2,9 km/h (1 Bft)
23.07.2009 05:00 23,6 C 17,5 C 0,0 UV-I 0,0 C 66 % 92 % 0 % 1003,1 hPa 0,0 l/m 1,9 km/h (1 Bft) 0,00 h 3,7 km/h (1 Bft)
23.07.2009 06:00 23,5 C 17,5 C 0,2 UV-I 0,0 C 66 % 92 % 0 % 1003,1 hPa 0,0 l/m 0,9 km/h (0 Bft) 0,00 h 1,3 km/h (1 Bft)
23.07.2009 07:00 23,6 C 17,8 C 1,0 UV-I 0,0 C 66 % 93 % 0 % 1002,6 hPa 0,0 l/m 0,8 km/h (0 Bft) 0,00 h 2,0 km/h (1 Bft)
23.07.2009 08:00 23,6 C 18,1 C 0,6 UV-I 0,0 C 66 % 93 % 0 % 1003,0 hPa 0,1 l/m 0,2 km/h (0 Bft) 0,00 h 0,4 km/h (0 Bft)
23.07.2009 09:00 23,6 C 18,4 C 0,4 UV-I 0,0 C 67 % 92 % 0 % 1003,4 hPa 0,5 l/m 0,0 km/h (0 Bft) 0,00 h 0,0 km/h (0 Bft)
23.07.2009 10:00 23,7 C 18,8 C 1,1 UV-I 0,3 C 69 % 93 % 8 % 1002,6 hPa 0,0 l/m 0,0 km/h (0 Bft) 0,00 h 0,0 km/h (0 Bft)
23.07.2009 11:00 24,0 C 19,9 C 1,4 UV-I 0,4 C 69 % 92 % 11 % 1002,7 hPa 3,7 l/m 0,0 km/h (0 Bft) 0,00 h 0,8 km/h (0 Bft)
23.07.2009 12:00 23,9 C 19,0 C 1,6 UV-I 0,0 C 68 % 90 % 0 % 1003,5 hPa 4,3 l/m 4,6 km/h (1 Bft) 0,00 h 8,9 km/h (2 Bft)
23.07.2009 13:00 23,8 C 18,4 C 2,2 UV-I 0,3 C 67 % 90 % 9 % 1004,8 hPa 0,0 l/m 1,6 km/h (1 Bft) 0,00 h 2,8 km/h (1 Bft)
23.07.2009 14:00 23,9 C 19,3 C 3,7 UV-I 1,2 C 67 % 88 % 35 % 1005,5 hPa 0,1 l/m 1,1 km/h (1 Bft) 0,00 h 2,8 km/h (1 Bft)
23.07.2009 15:00 24,0 C 19,7 C 2,2 UV-I 0,7 C 65 % 84 % 21 % 1007,0 hPa 0,0 l/m 2,9 km/h (1 Bft) 0,00 h 7,7 km/h (2 Bft)
23.07.2009 16:00 24,0 C 19,6 C 2,3 UV-I 0,9 C 64 % 82 % 25 % 1007,4 hPa 0,0 l/m 2,5 km/h (1 Bft) 0,03 h 6,1 km/h (2 Bft)
23.07.2009 17:00 24,3 C 20,7 C 3,4 UV-I 3,0 C 63 % 77 % 85 % 1007,2 hPa 0,0 l/m 2,8 km/h (1 Bft) 0,57 h 7,4 km/h (2 Bft)
23.07.2009 18:00 25,0 C 21,4 C 2,8 UV-I 3,6 C 61 % 73 % 96 % 1007,5 hPa 0,0 l/m 2,6 km/h (1 Bft) 0,80 h 5,8 km/h (2 Bft)
23.07.2009 19:00 24,8 C 20,9 C 1,1 UV-I 0,2 C 59 % 73 % 5 % 1008,2 hPa 0,0 l/m 0,9 km/h (0 Bft) 0,00 h 2,2 km/h (1 Bft)
23.07.2009 20:00 24,4 C 20,5 C 0,2 UV-I 0,0 C 60 % 76 % 0 % 1008,4 hPa 0,0 l/m 0,3 km/h (0 Bft) 0,00 h 1,0 km/h (0 Bft)
23.07.2009 21:00 24,0 C 19,6 C 0,0 UV-I 0,0 C 61 % 78 % 0 % 1008,8 hPa 0,0 l/m 0,5 km/h (0 Bft) 0,00 h 1,6 km/h (1 Bft)
23.07.2009 22:00 23,5 C 18,7 C 0,0 UV-I 0,0 C 62 % 82 % 0 % 1009,6 hPa 0,0 l/m 0,3 km/h (0 Bft) 0,00 h 1,3 km/h (1 Bft)
23.07.2009 23:00 23,2 C 18,0 C 0,0 UV-I 0,0 C 63 % 84 % 0 % 1010,2 hPa 0,0 l/m 0,2 km/h (0 Bft) 0,00 h 0,7 km/h (0 Bft)
24.07.2009 00:00 23,1 C 17,9 C 0,0 UV-I 0,0 C 64 % 87 % 0 % 1010,6 hPa 0,0 l/m 0,2 km/h (0 Bft) 0,00 h 1,1 km/h (0 Bft)
24.07.2009 01:00 22,9 C 17,9 C 0,0 UV-I 0,0 C 65 % 87 % 0 % 1010,8 hPa 0,0 l/m 1,2 km/h (1 Bft) 0,00 h 4,0 km/h (1 Bft)
24.07.2009 02:00 22,8 C 17,8 C 0,0 UV-I 0,0 C 64 % 86 % 0 % 1011,2 hPa 0,0 l/m 2,3 km/h (1 Bft) 0,00 h 5,5 km/h (1 Bft)
24.07.2009 03:00 22,6 C 17,5 C 0,0 UV-I 0,0 C 64 % 85 % 0 % 1011,7 hPa 0,0 l/m 2,2 km/h (1 Bft) 0,00 h 5,3 km/h (1 Bft)
24.07.2009 04:00 22,4 C 17,2 C 0,0 UV-I 0,0 C 63 % 82 % 0 % 1011,6 hPa 0,0 l/m 2,6 km/h (1 Bft) 0,00 h 5,8 km/h (2 Bft)
24.07.2009 05:00 22,2 C 16,8 C 0,0 UV-I 0,0 C 61 % 80 % 0 % 1011,8 hPa 0,0 l/m 2,9 km/h (1 Bft) 0,00 h 5,7 km/h (1 Bft)
24.07.2009 06:00 22,0 C 16,2 C 0,1 UV-I 0,0 C 59 % 79 % 0 % 1011,6 hPa 0,0 l/m 1,4 km/h (1 Bft) 0,00 h 2,6 km/h (1 Bft)
24.07.2009 07:00 22,0 C 16,1 C 0,5 UV-I 0,0 C 59 % 79 % 1 % 1012,2 hPa 0,0 l/m 1,6 km/h (1 Bft) 0,00 h 3,4 km/h (1 Bft)
24.07.2009 08:00 22,2 C 16,4 C 0,3 UV-I 0,0 C 60 % 83 % 0 % 1012,7 hPa 1,8 l/m 1,3 km/h (1 Bft) 0,00 h 3,3 km/h (1 Bft)
24.07.2009 09:00 22,1 C 15,2 C 0,6 UV-I 0,0 C 61 % 86 % 0 % 1013,3 hPa 2,4 l/m 2,8 km/h (1 Bft) 0,00 h 5,3 km/h (1 Bft)
24.07.2009 10:00 21,7 C 15,0 C 4,3 UV-I 0,8 C 61 % 89 % 23 % 1013,3 hPa 0,0 l/m 3,3 km/h (1 Bft) 0,00 h 6,4 km/h (2 Bft)
24.07.2009 11:00 21,9 C 17,5 C 12,1 UV-I 5,0 C 62 % 85 % 100 % 1013,4 hPa 0,0 l/m 3,8 km/h (1 Bft) 0,80 h 6,8 km/h (2 Bft)
24.07.2009 12:00 22,3 C 20,5 C 5,7 UV-I 3,1 C 61 % 71 % 68 % 1012,8 hPa 0,0 l/m 5,4 km/h (1 Bft) 0,35 h 9,5 km/h (2 Bft)
24.07.2009 13:00 22,6 C 21,0 C 6,5 UV-I 2,7 C 60 % 69 % 70 % 1013,0 hPa 0,0 l/m 6,1 km/h (2 Bft) 0,57 h 13,4 km/h (3 Bft)
24.07.2009 14:00 23,3 C 23,1 C 6,8 UV-I 3,3 C 57 % 56 % 92 % 1013,4 hPa 0,0 l/m 7,9 km/h (2 Bft) 0,83 h 13,4 km/h (3 Bft)
24.07.2009 15:00 24,4 C 23,9 C 4,7 UV-I 2,0 C 53 % 51 % 58 % 1013,5 hPa 0,0 l/m 6,4 km/h (2 Bft) 0,10 h 10,4 km/h (2 Bft)
24.07.2009 16:00 25,1 C 24,4 C 7,6 UV-I 2,7 C 48 % 46 % 77 % 1013,2 hPa 0,0 l/m 8,2 km/h (2 Bft) 0,43 h 13,1 km/h (3 Bft)
24.07.2009 17:00 25,9 C 24,5 C 3,0 UV-I 2,8 C 45 % 45 % 77 % 1013,4 hPa 0,0 l/m 5,9 km/h (2 Bft) 0,33 h 9,0 km/h (2 Bft)
24.07.2009 18:00 25,9 C 21,6 C 0,8 UV-I 0,4 C 46 % 56 % 13 % 1014,3 hPa 0,7 l/m 4,8 km/h (1 Bft) 0,07 h 8,5 km/h (2 Bft)
24.07.2009 19:00 25,3 C 19,0 C 0,9 UV-I 0,0 C 49 % 71 % 0 % 1014,8 hPa 0,0 l/m 0,2 km/h (0 Bft) 0,00 h 0,5 km/h (0 Bft)
24.07.2009 20:00 24,7 C 18,5 C 0,1 UV-I 0,0 C 52 % 76 % 0 % 1015,2 hPa 0,0 l/m 0,6 km/h (0 Bft) 0,00 h 0,7 km/h (0 Bft)
24.07.2009 21:00 24,1 C 17,9 C 0,0 UV-I 0,0 C 53 % 74 % 0 % 1015,3 hPa 0,0 l/m 2,3 km/h (1 Bft) 0,00 h 3,4 km/h (1 Bft)
24.07.2009 22:00 23,3 C 17,0 C 0,0 UV-I 0,0 C 53 % 73 % 0 % 1015,9 hPa 0,0 l/m 2,8 km/h (1 Bft) 0,00 h 4,7 km/h (1 Bft)
24.07.2009 23:00 22,7 C 16,4 C 0,0 UV-I 0,0 C 54 % 77 % 0 % 1015,7 hPa 0,0 l/m 3,4 km/h (1 Bft) 0,00 h 4,2 km/h (1 Bft)
25.07.2009 00:00 22,3 C 15,9 C 0,0 UV-I 0,0 C 56 % 81 % 0 % 1016,0 hPa 0,0 l/m 3,6 km/h (1 Bft) 0,00 h 6,9 km/h (2 Bft)
25.07.2009 01:00 22,0 C 15,4 C 0,0 UV-I 0,0 C 57 % 84 % 0 % 1016,5 hPa 0,0 l/m 3,5 km/h (1 Bft) 0,00 h 4,9 km/h (1 Bft)
25.07.2009 02:00 21,7 C 15,0 C 0,0 UV-I 0,0 C 58 % 86 % 0 % 1016,8 hPa 0,0 l/m 3,6 km/h (1 Bft) 0,00 h 5,4 km/h (1 Bft)
25.07.2009 03:00 21,5 C 14,8 C 0,0 UV-I 0,0 C 59 % 86 % 0 % 1017,1 hPa 0,0 l/m 4,4 km/h (1 Bft) 0,00 h 8,1 km/h (2 Bft)
25.07.2009 04:00 21,1 C 14,8 C 0,0 UV-I 0,0 C 59 % 86 % 0 % 1017,1 hPa 0,0 l/m 4,6 km/h (1 Bft) 0,00 h 7,3 km/h (2 Bft)
25.07.2009 05:00 21,0 C 15,1 C 0,0 UV-I 0,0 C 59 % 85 % 0 % 1017,5 hPa 0,0 l/m 4,1 km/h (1 Bft) 0,00 h 4,4 km/h (1 Bft)
25.07.2009 06:00 21,0 C 15,2 C 0,0 UV-I 0,0 C 60 % 85 % 0 % 1018,0 hPa 0,0 l/m 3,3 km/h (1 Bft) 0,00 h 3,9 km/h (1 Bft)
25.07.2009 07:00 21,0 C 15,3 C 0,2 UV-I 0,0 C 60 % 86 % 0 % 1018,4 hPa 0,0 l/m 3,8 km/h (1 Bft) 0,00 h 6,5 km/h (2 Bft)
25.07.2009 08:00 21,1 C 15,9 C 1,3 UV-I 0,3 C 61 % 85 % 9 % 1019,0 hPa 0,0 l/m 5,0 km/h (1 Bft) 0,00 h 6,7 km/h (2 Bft)
25.07.2009 09:00 21,3 C 17,0 C 2,2 UV-I 0,9 C 60 % 81 % 26 % 1019,3 hPa 0,0 l/m 6,0 km/h (2 Bft) 0,00 h 10,6 km/h (2 Bft)
25.07.2009 10:00 21,6 C 18,3 C 7,1 UV-I 3,2 C 60 % 75 % 84 % 1019,9 hPa 0,0 l/m 6,8 km/h (2 Bft) 0,17 h 13,4 km/h (3 Bft)
25.07.2009 11:00 21,8 C 19,4 C 6,4 UV-I 2,4 C 59 % 72 % 61 % 1020,4 hPa 0,0 l/m 6,0 km/h (2 Bft) 0,13 h 8,8 km/h (2 Bft)
25.07.2009 12:00 22,0 C 19,2 C 2,3 UV-I 0,5 C 59 % 73 % 15 % 1021,0 hPa 1,4 l/m 5,8 km/h (2 Bft) 0,00 h 8,9 km/h (2 Bft)
25.07.2009 13:00 22,2 C 18,4 C 4,1 UV-I 0,7 C 61 % 82 % 20 % 1021,7 hPa 0,6 l/m 2,0 km/h (1 Bft) 0,10 h 5,4 km/h (1 Bft)
25.07.2009 14:00 22,5 C 18,8 C 4,3 UV-I 1,8 C 63 % 82 % 49 % 1022,4 hPa 1,4 l/m 4,5 km/h (1 Bft) 0,37 h 8,9 km/h (2 Bft)
25.07.2009 15:00 23,1 C 20,5 C 4,6 UV-I 2,8 C 61 % 72 % 75 % 1022,4 hPa 0,0 l/m 4,8 km/h (1 Bft) 0,43 h 9,1 km/h (2 Bft)
25.07.2009 16:00 23,7 C 20,5 C 2,8 UV-I 0,2 C 59 % 71 % 6 % 1022,8 hPa 0,3 l/m 4,0 km/h (1 Bft) 0,00 h 6,8 km/h (2 Bft)
25.07.2009 17:00 23,9 C 20,8 C 2,4 UV-I 2,0 C 57 % 66 % 57 % 1022,7 hPa 0,0 l/m 3,9 km/h (1 Bft) 0,23 h 7,6 km/h (2 Bft)
25.07.2009 18:00 24,2 C 21,3 C 2,0 UV-I 3,3 C 53 % 54 % 86 % 1023,2 hPa 0,0 l/m 5,7 km/h (1 Bft) 0,67 h 10,2 km/h (2 Bft)
25.07.2009 19:00 24,0 C 20,8 C 1,2 UV-I 0,1 C 51 % 54 % 4 % 1023,8 hPa 0,0 l/m 4,0 km/h (1 Bft) 0,00 h 6,9 km/h (2 Bft)
25.07.2009 20:00 23,5 C 19,8 C 0,3 UV-I 0,0 C 52 % 60 % 0 % 1023,9 hPa 0,0 l/m 1,6 km/h (1 Bft) 0,00 h 2,8 km/h (1 Bft)
25.07.2009 21:00 23,1 C 18,3 C 0,0 UV-I 0,0 C 53 % 64 % 0 % 1024,4 hPa 0,0 l/m 0,2 km/h (0 Bft) 0,00 h 0,5 km/h (0 Bft)
25.07.2009 22:00 22,5 C 16,3 C 0,0 UV-I 0,0 C 54 % 73 % 0 % 1024,6 hPa 0,0 l/m 0,0 km/h (0 Bft) 0,00 h 0,0 km/h (0 Bft)
25.07.2009 23:00 22,1 C 14,6 C 0,0 UV-I 0,0 C 56 % 80 % 0 % 1024,8 hPa 0,0 l/m 0,0 km/h (0 Bft) 0,00 h 0,0 km/h (0 Bft)
26.07.2009 00:00 21,6 C 13,4 C 0,0 UV-I 0,0 C 57 % 84 % 0 % 1025,0 hPa 0,0 l/m 0,0 km/h (0 Bft) 0,00 h 0,0 km/h (0 Bft)
26.07.2009 01:00 21,3 C 12,6 C 0,0 UV-I 0,0 C 57 % 87 % 0 % 1024,6 hPa 0,0 l/m 0,0 km/h (0 Bft) 0,00 h 0,0 km/h (0 Bft)
26.07.2009 02:00 21,1 C 11,9 C 0,0 UV-I 0,0 C 57 % 88 % 0 % 1024,5 hPa 0,0 l/m 0,0 km/h (0 Bft) 0,00 h 0,0 km/h (0 Bft)
26.07.2009 03:00 20,9 C 11,4 C 0,0 UV-I 0,0 C 57 % 89 % 0 % 1024,1 hPa 0,0 l/m 0,0 km/h (0 Bft) 0,00 h 0,0 km/h (0 Bft)
26.07.2009 04:00 20,8 C 11,2 C 0,0 UV-I 0,0 C 57 % 90 % 0 % 1023,6 hPa 0,0 l/m 0,0 km/h (0 Bft) 0,00 h 0,1 km/h (0 Bft)
26.07.2009 05:00 20,5 C 11,4 C 0,0 UV-I 0,0 C 58 % 92 % 0 % 1023,2 hPa 0,0 l/m 0,8 km/h (0 Bft) 0,00 h 1,9 km/h (1 Bft)
26.07.2009 06:00 20,3 C 11,6 C 0,1 UV-I 0,0 C 58 % 92 % 0 % 1023,0 hPa 0,0 l/m 1,0 km/h (0 Bft) 0,00 h 2,6 km/h (1 Bft)
26.07.2009 07:00 20,3 C 12,1 C 0,7 UV-I 0,1 C 59 % 93 % 2 % 1022,7 hPa 0,0 l/m 1,8 km/h (1 Bft) 0,00 h 3,7 km/h (1 Bft)
26.07.2009 08:00 20,5 C 13,5 C 1,4 UV-I 0,8 C 60 % 93 % 22 % 1022,8 hPa 0,0 l/m 0,8 km/h (0 Bft) 0,00 h 2,2 km/h (1 Bft)
26.07.2009 09:00 21,0 C 15,4 C 2,2 UV-I 1,6 C 60 % 91 % 46 % 1022,9 hPa 0,0 l/m 2,4 km/h (1 Bft) 0,10 h 5,7 km/h (1 Bft)
26.07.2009 10:00 21,4 C 18,4 C 9,9 UV-I 5,5 C 60 % 82 % 100 % 1022,6 hPa 0,0 l/m 3,9 km/h (1 Bft) 1,00 h 8,2 km/h (2 Bft)
26.07.2009 11:00 21,7 C 21,4 C 11,7 UV-I 4,8 C 59 % 64 % 100 % 1022,4 hPa 0,0 l/m 5,0 km/h (1 Bft) 1,00 h 10,4 km/h (2 Bft)
26.07.2009 12:00 21,9 C 23,3 C 7,5 UV-I 4,1 C 55 % 52 % 100 % 1022,0 hPa 0,0 l/m 4,5 km/h (1 Bft) 1,00 h 6,9 km/h (2 Bft)
26.07.2009 13:00 22,5 C 24,6 C 6,9 UV-I 3,4 C 53 % 46 % 97 % 1021,9 hPa 0,0 l/m 4,7 km/h (1 Bft) 1,00 h 8,7 km/h (2 Bft)
26.07.2009 14:00 23,3 C 25,5 C 6,3 UV-I 3,2 C 51 % 43 % 89 % 1021,7 hPa 0,0 l/m 4,2 km/h (1 Bft) 0,80 h 7,7 km/h (2 Bft)
26.07.2009 15:00 24,1 C 26,1 C 5,9 UV-I 3,3 C 48 % 41 % 85 % 1021,2 hPa 0,0 l/m 3,2 km/h (1 Bft) 0,70 h 6,8 km/h (2 Bft)
26.07.2009 16:00 25,1 C 27,0 C 6,2 UV-I 3,0 C 46 % 41 % 79 % 1020,8 hPa 0,0 l/m 2,7 km/h (1 Bft) 0,47 h 5,8 km/h (2 Bft)
26.07.2009 17:00 25,6 C 26,7 C 3,2 UV-I 2,1 C 47 % 43 % 60 % 1020,2 hPa 0,0 l/m 2,1 km/h (1 Bft) 0,23 h 4,7 km/h (1 Bft)
26.07.2009 18:00 25,7 C 26,0 C 2,0 UV-I 2,0 C 47 % 44 % 55 % 1019,6 hPa 0,0 l/m 2,0 km/h (1 Bft) 0,37 h 4,2 km/h (1 Bft)
26.07.2009 19:00 25,4 C 24,8 C 1,0 UV-I 0,1 C 47 % 46 % 2 % 1019,2 hPa 0,0 l/m 0,9 km/h (0 Bft) 0,00 h 1,6 km/h (1 Bft)
26.07.2009 20:00 24,9 C 23,8 C 0,3 UV-I 0,0 C 48 % 50 % 0 % 1018,5 hPa 0,0 l/m 0,1 km/h (0 Bft) 0,00 h 0,4 km/h (0 Bft)
26.07.2009 21:00 24,5 C 22,3 C 0,0 UV-I 0,0 C 51 % 60 % 0 % 1017,8 hPa 0,0 l/m 0,0 km/h (0 Bft) 0,00 h 0,0 km/h (0 Bft)
26.07.2009 22:00 24,0 C 20,4 C 0,0 UV-I 0,0 C 54 % 67 % 0 % 1017,9 hPa 0,0 l/m 0,0 km/h (0 Bft) 0,00 h 0,0 km/h (0 Bft)
26.07.2009 23:00 23,5 C 18,9 C 0,0 UV-I 0,0 C 56 % 72 % 0 % 1017,6 hPa 0,0 l/m 0,0 km/h (0 Bft) 0,00 h 0,0 km/h (0 Bft)
Min-Datum _ 26.07.09 26.07.09 20.07.09 20.07.09 24.07.09 21.07.09 20.07.09 23.07.09 - 20.07.09 - 20.07.09
_ Min-Zeit 06:16 04:20 00:00 00:00 18:02 15:16 00:00 11:56 - 20:15 - 00:30
Minimum _ 20,2 C 11,1 C 0,0 UV-I 0,0 C 44 % 38 % 0 % 1002,2 hPa - 0,0 km/h (0 Bft) - 0,0 km/h (0 Bft)
Max-Datum _ 22.07.09 21.07.09 26.07.09 24.07.09 22.07.09 26.07.09 20.07.09 26.07.09 21.07.09 22.07.09 20.07.09 22.07.09
_ Max-Zeit 18:08 15:50 10:52 12:06 06:00 08:28 13:10 00:36 20:38 07:00 11:50 16:22
Maximum _ 28,2 C 31,9 C 14,0 UV-I 6,1 C 70 % 94 % 100 % 1025,2 hPa 8,0 l/m 13,5 km/h
N-NO (3 Bft)
0,03 h 39,0 km/h
W-NW (6 Bft)
Durchschnitt _ 23,2 C 19,8 C 2,0 UV-I 0,9 C 58 % 73 % 23 % 1013,6 hPa #34,2 l/m 2,9 km/h (1 Bft) #20:55 h 5,2 km/h (1 Bft)
© 2012 W. Hausmann